Time;durP1;ratioP1;P1;durP2;ratioP2;P2;SDS_P1;SDS_P2;PMS_P1;PMS_P2;Temp;Humidity;BMP_temperature;BMP_pressure;BME280_temperature;BME280_humidity;BME280_pressure;Samples;Min_cycle;Max_cycle;Signal;HPM_P1;HPM_P2
2022/04/07 00:00:54;;;;;;;1.20;1.20;;;14.90;61.20;;;;;;5074918;28;20260;-43
2022/04/07 00:03:20;;;;;;;1.87;1.20;;;14.90;60.90;;;;;;5073008;28;20636;-48
2022/04/07 00:05:46;;;;;;;2.83;1.50;;;14.70;60.90;;;;;;5064627;28;20191;-45
2022/04/07 00:08:11;;;;;;;1.67;1.57;;;14.80;61.00;;;;;;5060894;28;21187;-49
2022/04/07 00:10:38;;;;;;;1.37;1.27;;;15.00;60.70;;;;;;5067031;28;20212;-44
2022/04/07 00:13:04;;;;;;;1.33;1.20;;;15.10;59.90;;;;;;5066132;28;20442;-47
2022/04/07 00:15:30;;;;;;;1.80;1.37;;;15.10;59.70;;;;;;5064556;28;20451;-50
2022/04/07 00:17:57;;;;;;;1.60;1.50;;;15.20;59.80;;;;;;5062933;28;20555;-45
2022/04/07 00:20:24;;;;;;;1.67;1.33;;;15.20;59.40;;;;;;5065418;28;20490;-43
2022/04/07 00:22:50;;;;;;;1.50;1.40;;;15.20;59.10;;;;;;5067138;28;20561;-45
2022/04/07 00:25:16;;;;;;;0.90;0.90;;;15.30;59.10;;;;;;5062485;28;20503;-45
2022/04/07 00:27:42;;;;;;;1.53;1.30;;;15.50;58.60;;;;;;5066880;28;20441;-47
2022/04/07 00:30:13;;;;;;;1.00;1.00;;;15.50;58.30;;;;;;5063571;28;20659;-45
2022/04/07 00:32:44;;;;;;;1.03;1.00;;;15.60;58.20;;;;;;5064527;28;20473;-43
2022/04/07 00:35:10;;;;;;;1.30;1.20;;;15.50;58.20;;;;;;5063197;28;20975;-46
2022/04/07 00:37:36;;;;;;;0.97;0.93;;;15.50;58.60;;;;;;5068171;28;20446;-46
2022/04/07 00:40:03;;;;;;;5.33;1.50;;;15.70;58.10;;;;;;5065387;28;20489;-46
2022/04/07 00:42:28;;;;;;;1.40;1.30;;;15.90;57.70;;;;;;5066878;28;20192;-45
2022/04/07 00:44:54;;;;;;;1.03;1.00;;;15.90;57.40;;;;;;5063758;28;20487;-45
2022/04/07 00:47:22;;;;;;;1.63;1.03;;;15.70;57.20;;;;;;5064221;28;20196;-45
2022/04/07 00:49:47;;;;;;;1.27;1.20;;;15.70;57.60;;;;;;5066870;28;20580;-46
2022/04/07 00:52:13;;;;;;;0.90;0.90;;;15.60;57.70;;;;;;5062429;28;20434;-43
2022/04/07 00:54:39;;;;;;;1.10;1.00;;;15.80;57.60;;;;;;5066733;28;20191;-45
2022/04/07 00:57:06;;;;;;;1.87;1.10;;;15.70;57.40;;;;;;5067171;28;20434;-47
2022/04/07 00:59:34;;;;;;;1.20;1.10;;;15.60;57.70;;;;;;5061963;28;20838;-44
2022/04/07 01:02:00;;;;;;;1.00;1.00;;;15.70;57.70;;;;;;5064503;28;20866;-46
2022/04/07 01:04:26;;;;;;;1.10;1.00;;;15.70;57.70;;;;;;5066044;28;20433;-44
2022/04/07 01:06:52;;;;;;;1.27;1.10;;;15.70;57.80;;;;;;5068312;28;20240;-47
2022/04/07 01:09:19;;;;;;;1.00;1.00;;;15.70;57.80;;;;;;5057317;28;20496;-43
2022/04/07 01:11:45;;;;;;;1.13;1.03;;;15.40;58.10;;;;;;5060531;28;20473;-45
2022/04/07 01:14:11;;;;;;;1.03;0.83;;;15.20;58.70;;;;;;5061194;28;20445;-50
2022/04/07 01:16:37;;;;;;;0.97;0.97;;;15.20;58.90;;;;;;5066766;28;20438;-47
2022/04/07 01:19:03;;;;;;;0.90;0.90;;;15.10;59.10;;;;;;5065086;28;20239;-48
2022/04/07 01:21:32;;;;;;;0.80;0.80;;;15.10;59.20;;;;;;5064120;28;20446;-43
2022/04/07 01:24:01;;;;;;;0.93;0.93;;;14.90;59.50;;;;;;5063836;28;20446;-45
2022/04/07 01:26:27;;;;;;;1.00;0.90;;;15.00;59.80;;;;;;5066345;28;20573;-45
2022/04/07 01:28:53;;;;;;;0.90;0.90;;;14.90;59.80;;;;;;5067753;28;20974;-44
2022/04/07 01:31:18;;;;;;;0.80;0.80;;;14.90;59.80;;;;;;5064053;28;20438;-43
2022/04/07 01:33:45;;;;;;;0.80;0.80;;;14.80;60.00;;;;;;5065229;28;20194;-44
2022/04/07 01:36:12;;;;;;;0.80;0.80;;;14.80;60.20;;;;;;5060142;28;20223;-43
2022/04/07 01:38:38;;;;;;;1.23;0.77;;;14.90;60.10;;;;;;5059532;28;20442;-43
2022/04/07 01:41:04;;;;;;;0.90;0.60;;;15.10;59.40;;;;;;5065627;28;20795;-43
2022/04/07 01:43:30;;;;;;;0.80;0.77;;;15.20;59.00;;;;;;5071459;28;20434;-43
2022/04/07 01:45:56;;;;;;;1.00;0.90;;;15.00;59.30;;;;;;5068504;28;20271;-45
2022/04/07 01:48:23;;;;;;;0.80;0.80;;;15.00;59.30;;;;;;5072011;28;20520;-48
2022/04/07 01:50:51;;;;;;;0.87;0.87;;;14.80;59.70;;;;;;5068875;28;20661;-43
2022/04/07 01:53:18;;;;;;;2.60;0.83;;;14.70;60.20;;;;;;5071058;28;20457;-46
2022/04/07 01:55:44;;;;;;;0.90;0.90;;;14.90;60.40;;;;;;5070425;28;20426;-44
2022/04/07 01:58:10;;;;;;;1.10;0.87;;;14.90;60.30;;;;;;5072062;28;20440;-49
2022/04/07 02:00:38;;;;;;;0.87;0.87;;;15.10;60.10;;;;;;5068459;28;20839;-45
2022/04/07 02:03:05;;;;;;;1.20;1.10;;;15.20;59.70;;;;;;5063898;28;20934;-43
2022/04/07 02:05:31;;;;;;;0.90;0.90;;;15.10;59.40;;;;;;5069836;28;20466;-43
2022/04/07 02:07:56;;;;;;;1.17;1.07;;;14.80;60.00;;;;;;5067686;28;20556;-44
2022/04/07 02:10:23;;;;;;;1.00;1.00;;;15.00;60.10;;;;;;5069136;28;20196;-45
2022/04/07 02:12:49;;;;;;;1.23;1.13;;;15.00;60.20;;;;;;5067813;28;20199;-44
2022/04/07 02:15:15;;;;;;;2.03;1.30;;;15.20;59.80;;;;;;5064707;28;20426;-43
2022/04/07 02:17:41;;;;;;;1.17;1.10;;;15.10;59.80;;;;;;5069896;28;20508;-45
2022/04/07 02:20:09;;;;;;;1.10;1.10;;;15.10;59.90;;;;;;5067075;28;20285;-43
2022/04/07 02:22:35;;;;;;;1.07;0.93;;;15.20;59.50;;;;;;5068502;28;20453;-45
2022/04/07 02:25:00;;;;;;;1.80;1.00;;;15.20;59.50;;;;;;5068189;28;20531;-44
2022/04/07 02:27:34;;;;;;;0.97;0.80;;;15.40;59.20;;;;;;5069394;28;20195;-43
2022/04/07 02:29:59;;;;;;;1.30;1.20;;;15.50;58.70;;;;;;5067886;28;20204;-43
2022/04/07 02:32:25;;;;;;;1.10;1.00;;;15.30;59.10;;;;;;5068122;28;20445;-46
2022/04/07 02:34:52;;;;;;;1.63;1.17;;;15.40;59.30;;;;;;5068371;28;20283;-44
2022/04/07 02:37:17;;;;;;;1.03;1.00;;;15.30;59.20;;;;;;5068074;28;20287;-44
2022/04/07 02:39:43;;;;;;;0.90;0.90;;;15.50;59.10;;;;;;5069358;28;20906;-43
2022/04/07 02:42:08;;;;;;;1.50;1.40;;;15.60;58.90;;;;;;5068422;28;20195;-43
2022/04/07 02:44:34;;;;;;;1.90;1.80;;;15.50;58.60;;;;;;5067434;28;20202;-44
2022/04/07 02:47:00;;;;;;;1.77;1.43;;;15.50;58.60;;;;;;5066962;28;20184;-45
2022/04/07 02:49:25;;;;;;;1.37;1.27;;;15.50;58.70;;;;;;5069325;28;20907;-44
2022/04/07 02:51:51;;;;;;;1.40;1.30;;;15.10;58.70;;;;;;5063877;28;20192;-44
2022/04/07 02:54:16;;;;;;;1.43;1.33;;;14.90;59.30;;;;;;5061379;28;20204;-43
2022/04/07 02:56:42;;;;;;;0.90;0.90;;;14.60;59.60;;;;;;5070134;28;20648;-46
2022/04/07 02:59:07;;;;;;;1.30;1.20;;;14.70;59.90;;;;;;5062965;28;20233;-44
2022/04/07 03:01:33;;;;;;;1.40;0.87;;;14.70;59.80;;;;;;5060205;28;20245;-44
2022/04/07 03:03:59;;;;;;;1.37;1.27;;;14.40;59.80;;;;;;5063944;28;20189;-43
2022/04/07 03:06:25;;;;;;;2.67;1.00;;;14.00;59.70;;;;;;5067110;28;20195;-43
2022/04/07 03:08:50;;;;;;;1.13;1.07;;;13.80;59.80;;;;;;5067130;28;20561;-43
2022/04/07 03:11:17;;;;;;;0.93;0.90;;;14.00;60.40;;;;;;5067351;28;20191;-45
2022/04/07 03:13:42;;;;;;;1.27;1.17;;;13.80;59.40;;;;;;5067825;28;20809;-43
2022/04/07 03:16:08;;;;;;;1.10;1.10;;;13.70;59.50;;;;;;5064203;28;20445;-45
2022/04/07 03:18:35;;;;;;;1.17;0.90;;;13.70;59.40;;;;;;5064466;28;20240;-43
2022/04/07 03:21:00;;;;;;;1.07;1.00;;;13.70;59.40;;;;;;5065846;28;20458;-43
2022/04/07 03:23:26;;;;;;;1.10;1.00;;;13.50;59.00;;;;;;5069056;28;20980;-44
2022/04/07 03:25:52;;;;;;;1.10;0.87;;;13.50;59.40;;;;;;5068343;28;20611;-43
2022/04/07 03:28:18;;;;;;;5.33;1.50;;;13.80;59.40;;;;;;5068838;28;20208;-44
2022/04/07 03:30:44;;;;;;;1.20;1.10;;;13.60;58.80;;;;;;5061628;28;20314;-44
2022/04/07 03:33:09;;;;;;;1.50;1.00;;;13.60;59.30;;;;;;5066831;28;20910;-46
2022/04/07 03:35:38;;;;;;;1.10;1.00;;;13.30;58.70;;;;;;5064805;28;20203;-43
2022/04/07 03:38:05;;;;;;;1.80;0.90;;;13.20;59.30;;;;;;5067226;28;20204;-43
2022/04/07 03:40:32;;;;;;;1.00;0.90;;;13.50;59.30;;;;;;5062881;28;20478;-46
2022/04/07 03:42:58;;;;;;;1.07;1.00;;;13.70;58.80;;;;;;5063268;28;20445;-43
2022/04/07 03:45:24;;;;;;;2.57;0.80;;;13.70;58.00;;;;;;5063932;28;20439;-43
2022/04/07 03:47:49;;;;;;;1.17;1.00;;;13.70;57.90;;;;;;5069316;28;20446;-43
2022/04/07 03:50:15;;;;;;;1.80;0.90;;;13.60;58.00;;;;;;5063408;28;20278;-43
2022/04/07 03:52:41;;;;;;;0.80;0.80;;;13.70;58.00;;;;;;5069094;28;20206;-43
2022/04/07 03:55:07;;;;;;;2.00;1.23;;;13.50;57.70;;;;;;5060454;28;20550;-44
2022/04/07 03:57:32;;;;;;;2.70;0.73;;;13.40;58.00;;;;;;5067907;28;20207;-44
2022/04/07 03:59:58;;;;;;;0.93;0.77;;;13.50;58.10;;;;;;5070937;28;21101;-42
2022/04/07 04:02:23;;;;;;;1.00;1.00;;;13.50;58.10;;;;;;5064447;28;20187;-45
2022/04/07 04:04:49;;;;;;;0.90;0.90;;;13.60;57.80;;;;;;5061983;28;20216;-43
2022/04/07 04:07:15;;;;;;;0.80;0.80;;;13.50;57.60;;;;;;5069791;28;20199;-43
2022/04/07 04:09:40;;;;;;;1.87;0.93;;;13.70;57.90;;;;;;5067909;28;20835;-44
2022/04/07 04:12:07;;;;;;;0.93;0.60;;;13.50;57.60;;;;;;5061299;28;20202;-46
2022/04/07 04:14:32;;;;;;;1.60;1.27;;;13.50;57.80;;;;;;5059119;28;20215;-43
2022/04/07 04:16:58;;;;;;;1.00;0.90;;;13.60;57.90;;;;;;5059788;28;20918;-43
2022/04/07 04:19:24;;;;;;;2.30;1.07;;;13.70;57.70;;;;;;5066413;28;20235;-42
2022/04/07 04:21:50;;;;;;;0.97;0.80;;;13.50;57.60;;;;;;5062649;28;20200;-43
2022/04/07 04:24:16;;;;;;;0.83;0.70;;;13.60;57.80;;;;;;5064230;28;20238;-45
2022/04/07 04:26:41;;;;;;;0.80;0.80;;;13.50;57.90;;;;;;5066130;28;20438;-44
2022/04/07 04:29:07;;;;;;;1.17;0.80;;;13.60;57.60;;;;;;5065896;28;20192;-43
2022/04/07 04:31:32;;;;;;;1.67;0.93;;;13.60;57.60;;;;;;5064326;28;20198;-44
2022/04/07 04:33:59;;;;;;;1.87;1.00;;;13.60;58.00;;;;;;5067139;28;20644;-44
2022/04/07 04:36:24;;;;;;;2.70;0.97;;;13.60;57.30;;;;;;5065990;28;20286;-44
2022/04/07 04:38:50;;;;;;;1.23;1.10;;;13.40;58.00;;;;;;5066105;28;21056;-43
2022/04/07 04:41:16;;;;;;;1.07;0.87;;;13.50;57.80;;;;;;5065847;28;20275;-43
2022/04/07 04:43:41;;;;;;;1.37;0.80;;;13.50;57.40;;;;;;5066442;28;20192;-47
2022/04/07 04:46:07;;;;;;;0.80;0.80;;;13.50;57.40;;;;;;5066552;28;20298;-43
2022/04/07 04:48:38;;;;;;;0.83;0.83;;;13.60;56.90;;;;;;5068522;28;20203;-44
2022/04/07 04:51:06;;;;;;;1.17;1.07;;;13.70;56.80;;;;;;5068149;28;20223;-44
2022/04/07 04:53:32;;;;;;;1.00;0.80;;;13.70;56.70;;;;;;5067119;28;20457;-43
2022/04/07 04:55:58;;;;;;;1.13;1.03;;;13.80;56.40;;;;;;5064727;28;20442;-43
2022/04/07 04:58:23;;;;;;;0.90;0.90;;;13.80;56.40;;;;;;5067649;28;20466;-43
2022/04/07 05:00:49;;;;;;;1.00;0.80;;;13.40;56.20;;;;;;5066873;28;20231;-44
2022/04/07 05:03:16;;;;;;;0.90;0.80;;;13.40;56.60;;;;;;5063779;28;20195;-43
2022/04/07 05:05:41;;;;;;;1.13;1.00;;;13.60;56.70;;;;;;5061598;28;20199;-42
2022/04/07 05:08:07;;;;;;;0.80;0.80;;;13.70;56.30;;;;;;5059092;28;20456;-43
2022/04/07 05:10:33;;;;;;;0.90;0.80;;;13.70;56.10;;;;;;5064852;28;20223;-43
2022/04/07 05:12:58;;;;;;;0.70;0.70;;;13.70;56.00;;;;;;5066139;28;20196;-45
2022/04/07 05:15:24;;;;;;;1.13;0.70;;;13.90;56.20;;;;;;5060023;28;20195;-44
2022/04/07 05:17:51;;;;;;;1.00;0.67;;;13.90;55.90;;;;;;5062822;28;20195;-43
2022/04/07 05:20:16;;;;;;;1.03;0.90;;;14.20;55.80;;;;;;5059461;28;20339;-44
2022/04/07 05:22:42;;;;;;;0.80;0.70;;;14.40;55.40;;;;;;5066185;28;20525;-43
2022/04/07 05:25:09;;;;;;;1.80;1.20;;;14.50;54.80;;;;;;5064688;28;20469;-46
2022/04/07 05:27:36;;;;;;;0.80;0.60;;;14.50;54.70;;;;;;5061017;28;20525;-45
2022/04/07 05:30:15;;;;;;;1.00;0.90;;;14.30;54.60;;;;;;5067982;28;20453;-44
2022/04/07 05:32:44;;;;;;;0.97;0.97;;;14.20;54.90;;;;;;5062565;28;20867;-46
2022/04/07 05:35:12;;;;;;;1.63;0.83;;;14.40;55.00;;;;;;5068042;28;20430;-43
2022/04/07 05:37:37;;;;;;;1.13;0.80;;;14.40;54.70;;;;;;5066972;28;20445;-43
2022/04/07 05:40:04;;;;;;;0.67;0.67;;;14.20;55.00;;;;;;5067954;28;20528;-45
2022/04/07 05:42:30;;;;;;;1.63;0.93;;;14.30;55.20;;;;;;5065859;28;20430;-43
2022/04/07 05:44:56;;;;;;;0.80;0.80;;;14.20;55.00;;;;;;5067661;28;20847;-43
2022/04/07 05:47:21;;;;;;;0.90;0.90;;;14.20;55.30;;;;;;5067929;28;20447;-44
2022/04/07 05:49:47;;;;;;;1.20;0.90;;;14.20;55.00;;;;;;5066666;28;20271;-44
2022/04/07 05:52:13;;;;;;;1.40;0.80;;;14.10;55.20;;;;;;5067383;28;20636;-44
2022/04/07 05:54:39;;;;;;;0.80;0.73;;;14.20;55.30;;;;;;5067094;28;20191;-43
2022/04/07 05:57:04;;;;;;;1.20;0.80;;;14.30;55.20;;;;;;5068869;28;20426;-44
2022/04/07 05:59:30;;;;;;;0.63;0.63;;;14.30;55.20;;;;;;5062396;28;20231;-43
2022/04/07 06:01:56;;;;;;;1.47;0.60;;;14.40;55.00;;;;;;5067091;28;20191;-45
2022/04/07 06:04:21;;;;;;;1.20;0.87;;;14.40;54.40;;;;;;5066102;28;20726;-44
2022/04/07 06:06:47;;;;;;;0.80;0.73;;;14.40;54.60;;;;;;5067090;28;20865;-45
2022/04/07 06:09:12;;;;;;;0.80;0.80;;;14.50;54.70;;;;;;5068313;28;20192;-43
2022/04/07 06:11:38;;;;;;;0.70;0.70;;;14.70;54.50;;;;;;5064101;28;20254;-43
2022/04/07 06:14:04;;;;;;;0.80;0.80;;;14.70;53.90;;;;;;5065440;28;20651;-43
2022/04/07 06:16:29;;;;;;;1.23;0.70;;;14.50;54.10;;;;;;5061122;28;20194;-46
2022/04/07 06:18:55;;;;;;;0.70;0.70;;;14.70;54.10;;;;;;5067068;28;20247;-44
2022/04/07 06:21:24;;;;;;;0.70;0.70;;;14.60;54.00;;;;;;5067856;28;20919;-44
2022/04/07 06:23:50;;;;;;;0.70;0.70;;;14.80;54.30;;;;;;5067249;28;20220;-43
2022/04/07 06:26:18;;;;;;;0.77;0.60;;;14.60;53.10;;;;;;5067928;28;20473;-45
2022/04/07 06:28:44;;;;;;;1.57;0.93;;;14.80;53.70;;;;;;5072253;28;20525;-44
2022/04/07 06:31:09;;;;;;;2.30;0.80;;;14.90;53.50;;;;;;5070524;28;20430;-47
2022/04/07 06:33:35;;;;;;;0.60;0.60;;;14.90;52.80;;;;;;5072215;28;20429;-47
2022/04/07 06:36:02;;;;;;;0.93;0.93;;;14.90;53.20;;;;;;5071798;28;20643;-44
2022/04/07 06:38:30;;;;;;;1.20;0.70;;;14.90;53.00;;;;;;5064598;28;20192;-45
2022/04/07 06:40:56;;;;;;;1.07;0.60;;;14.80;53.20;;;;;;5071409;28;20450;-43
2022/04/07 06:43:22;;;;;;;1.03;0.70;;;14.70;53.30;;;;;;5072181;28;20422;-43
2022/04/07 06:45:48;;;;;;;0.70;0.70;;;14.80;53.70;;;;;;5071608;28;20481;-45
2022/04/07 06:48:13;;;;;;;0.60;0.60;;;15.00;53.10;;;;;;5071892;28;20230;-44
2022/04/07 06:50:39;;;;;;;0.60;0.50;;;14.90;52.70;;;;;;5071647;28;20192;-43
2022/04/07 06:53:05;;;;;;;0.60;0.60;;;14.40;53.60;;;;;;5072121;28;20191;-44
2022/04/07 06:55:30;;;;;;;0.70;0.70;;;14.20;53.80;;;;;;5071383;28;20199;-43
2022/04/07 06:57:59;;;;;;;5.13;0.80;;;14.20;53.80;;;;;;5071944;28;20202;-45
2022/04/07 07:00:27;;;;;;;0.60;0.60;;;14.10;54.20;;;;;;5069843;28;20584;-43
2022/04/07 07:02:55;;;;;;;0.80;0.60;;;14.00;54.20;;;;;;5071395;28;20800;-44
2022/04/07 07:05:22;;;;;;;0.50;0.50;;;14.00;53.90;;;;;;5071446;28;20414;-43
2022/04/07 07:07:48;;;;;;;2.10;0.73;;;13.90;54.20;;;;;;5071474;28;21478;-46
2022/04/07 07:10:20;;;;;;;1.73;0.60;;;14.10;53.80;;;;;;5071174;28;20427;-45
2022/04/07 07:12:47;;;;;;;1.70;0.87;;;14.20;53.50;;;;;;5070926;28;20203;-44
2022/04/07 07:15:13;;;;;;;0.63;0.63;;;14.20;53.70;;;;;;5058409;28;20487;-45
2022/04/07 07:17:39;;;;;;;0.70;0.70;;;14.20;53.40;;;;;;5071685;28;20430;-43
2022/04/07 07:20:10;;;;;;;0.70;0.70;;;14.30;53.40;;;;;;5070950;28;20240;-45
2022/04/07 07:22:36;;;;;;;0.80;0.60;;;14.50;53.30;;;;;;5070880;28;20539;-44
2022/04/07 07:25:02;;;;;;;1.03;0.80;;;14.90;53.00;;;;;;5070823;28;20431;-45
2022/04/07 07:27:38;;;;;;;2.37;0.93;;;15.20;52.40;;;;;;5068318;28;20921;-44
2022/04/07 07:30:09;;;;;;;0.73;0.63;;;15.40;51.90;;;;;;5067951;28;20520;-45
2022/04/07 07:32:41;;;;;;;0.70;0.70;;;15.40;51.50;;;;;;5067837;28;20521;-44
2022/04/07 07:35:08;;;;;;;1.47;0.70;;;15.20;51.50;;;;;;5066253;28;20438;-43
2022/04/07 07:37:35;;;;;;;0.67;0.67;;;15.20;51.90;;;;;;5065833;28;20937;-46
2022/04/07 07:40:06;;;;;;;1.57;0.77;;;15.10;51.70;;;;;;5068871;28;20501;-47
2022/04/07 07:42:31;;;;;;;1.00;0.90;;;15.10;52.20;;;;;;5068497;28;20446;-43
2022/04/07 07:44:57;;;;;;;0.70;0.67;;;15.40;52.10;;;;;;5066105;28;20433;-43
2022/04/07 07:47:22;;;;;;;0.50;0.50;;;15.20;51.60;;;;;;5064198;28;20279;-43
2022/04/07 07:49:48;;;;;;;1.90;0.77;;;15.00;51.30;;;;;;5070288;28;20287;-46
2022/04/07 07:52:14;;;;;;;1.20;0.80;;;14.90;51.80;;;;;;5069989;28;20188;-43
2022/04/07 07:54:39;;;;;;;0.73;0.70;;;15.00;52.30;;;;;;5068412;28;20241;-46
2022/04/07 07:57:05;;;;;;;0.77;0.60;;;15.00;52.10;;;;;;5058883;28;20197;-44
2022/04/07 07:59:30;;;;;;;0.67;0.67;;;15.20;51.90;;;;;;5063849;28;20227;-44
2022/04/07 08:01:56;;;;;;;0.63;0.60;;;15.40;51.70;;;;;;5066783;28;20188;-45
2022/04/07 08:04:21;;;;;;;1.37;0.70;;;15.40;51.60;;;;;;5064399;28;20195;-44
2022/04/07 08:06:47;;;;;;;0.90;0.90;;;15.50;51.10;;;;;;5067384;28;20199;-44
2022/04/07 08:09:14;;;;;;;0.67;0.50;;;15.50;51.50;;;;;;5066823;28;20192;-44
2022/04/07 08:11:43;;;;;;;0.83;0.80;;;15.70;51.40;;;;;;5055891;28;20229;-45
2022/04/07 08:14:09;;;;;;;0.80;0.80;;;15.70;50.90;;;;;;5061743;28;20441;-43
2022/04/07 08:16:36;;;;;;;0.87;0.50;;;15.70;51.00;;;;;;5056023;28;20453;-44
2022/04/07 08:19:01;;;;;;;0.70;0.60;;;15.50;51.20;;;;;;5064118;28;20255;-45
2022/04/07 08:21:27;;;;;;;2.13;0.60;;;15.70;51.30;;;;;;5067475;28;20438;-45
2022/04/07 08:23:53;;;;;;;1.17;1.07;;;15.80;51.20;;;;;;5067867;28;20590;-45
2022/04/07 08:26:19;;;;;;;0.70;0.60;;;15.90;50.80;;;;;;5069191;28;20188;-46
2022/04/07 08:28:44;;;;;;;0.60;0.60;;;16.00;50.40;;;;;;5069108;28;20564;-45
2022/04/07 08:31:10;;;;;;;0.80;0.60;;;15.90;50.60;;;;;;5075112;28;20513;-46
2022/04/07 08:33:36;;;;;;;0.70;0.60;;;15.90;50.50;;;;;;5066487;28;20279;-45
2022/04/07 08:36:01;;;;;;;1.97;0.50;;;15.80;50.10;;;;;;5068476;28;20222;-46
2022/04/07 08:38:27;;;;;;;0.93;0.80;;;15.80;50.90;;;;;;5069755;28;20188;-44
2022/04/07 08:40:55;;;;;;;1.97;0.70;;;16.10;50.70;;;;;;5063738;28;21804;-45
2022/04/07 08:43:22;;;;;;;0.80;0.60;;;16.20;50.50;;;;;;5065271;28;20618;-47
2022/04/07 08:45:49;;;;;;;0.90;0.90;;;16.40;50.40;;;;;;5069272;28;20905;-49
2022/04/07 08:48:15;;;;;;;1.37;0.80;;;16.40;49.90;;;;;;5059982;28;20435;-45
2022/04/07 08:50:42;;;;;;;0.60;0.60;;;16.40;50.00;;;;;;5062758;28;20430;-46
2022/04/07 08:53:08;;;;;;;1.40;0.80;;;16.30;50.40;;;;;;5066185;28;20941;-47
2022/04/07 08:55:34;;;;;;;0.83;0.70;;;16.30;50.70;;;;;;5069600;28;20452;-46
2022/04/07 08:58:02;;;;;;;1.33;0.70;;;16.00;50.40;;;;;;5068390;28;20438;-46
2022/04/07 09:00:28;;;;;;;1.30;0.80;;;15.70;50.60;;;;;;5066936;28;20224;-46
2022/04/07 09:02:54;;;;;;;2.00;0.97;;;15.70;51.20;;;;;;5061703;28;20500;-43
2022/04/07 09:05:24;;;;;;;1.10;1.00;;;15.90;51.00;;;;;;5069222;28;20226;-44
2022/04/07 09:07:51;;;;;;;0.80;0.70;;;16.00;50.80;;;;;;5069703;28;20195;-43
2022/04/07 09:10:21;;;;;;;0.90;0.60;;;15.70;50.50;;;;;;5069140;28;20423;-43
2022/04/07 09:12:46;;;;;;;1.33;0.83;;;15.70;50.90;;;;;;5069027;28;20441;-44
2022/04/07 09:15:13;;;;;;;0.80;0.70;;;15.90;50.80;;;;;;5069353;28;20426;-43
2022/04/07 09:17:53;;;;;;;2.00;0.47;;;15.90;50.50;;;;;;5068759;28;20211;-44
2022/04/07 09:20:19;;;;;;;0.63;0.50;;;15.30;51.00;;;;;;5068672;28;20573;-43
2022/04/07 09:22:53;;;;;;;0.70;0.63;;;15.20;51.10;;;;;;5068921;28;20434;-43
2022/04/07 09:25:19;;;;;;;1.90;0.53;;;15.10;50.90;;;;;;5073090;28;20421;-44
2022/04/07 09:27:48;;;;;;;1.00;0.80;;;15.20;50.60;;;;;;5076439;28;20916;-43
2022/04/07 09:30:14;;;;;;;0.70;0.60;;;15.10;50.60;;;;;;5068998;28;20231;-43
2022/04/07 09:32:44;;;;;;;1.00;0.77;;;15.10;50.70;;;;;;5068894;28;20457;-45
2022/04/07 09:35:11;;;;;;;0.80;0.50;;;15.40;51.00;;;;;;5068561;28;20704;-45
2022/04/07 09:37:40;;;;;;;1.50;0.73;;;15.20;50.50;;;;;;5069341;28;20442;-43
2022/04/07 09:40:25;;;;;;;0.90;0.80;;;15.40;51.20;;;;;;5068871;28;20494;-43
2022/04/07 09:42:58;;;;;;;0.50;0.40;;;15.40;51.20;;;;;;5067897;28;20987;-43
2022/04/07 09:45:24;;;;;;;0.93;0.60;;;15.60;51.00;;;;;;5065360;28;20442;-43
2022/04/07 09:47:50;;;;;;;2.97;0.60;;;15.50;51.80;;;;;;5061215;28;20452;-43
2022/04/07 09:50:31;;;;;;;1.13;0.70;;;15.30;51.70;;;;;;5067076;28;20192;-43
2022/04/07 09:52:59;;;;;;;1.00;0.60;;;15.20;53.10;;;;;;5065561;28;20205;-43
2022/04/07 09:55:37;;;;;;;1.17;0.57;;;15.20;53.50;;;;;;5065374;28;20442;-45
2022/04/07 09:58:05;;;;;;;1.00;0.73;;;15.30;53.40;;;;;;5068545;28;22530;-43
2022/04/07 10:00:31;;;;;;;1.33;0.63;;;15.40;53.60;;;;;;5068041;28;20539;-43
2022/04/07 10:02:57;;;;;;;1.33;0.50;;;15.00;52.40;;;;;;5070172;28;20426;-44
2022/04/07 10:05:24;;;;;;;3.30;0.70;;;15.00;53.30;;;;;;5065846;28;20795;-43
2022/04/07 10:07:50;;;;;;;1.03;0.60;;;15.00;53.60;;;;;;5071321;28;20571;-44
2022/04/07 10:10:18;;;;;;;0.70;0.67;;;15.20;53.30;;;;;;5070692;28;20465;-45
2022/04/07 10:12:46;;;;;;;1.10;0.70;;;15.20;52.70;;;;;;5070735;28;20442;-45
2022/04/07 10:15:11;;;;;;;8.23;0.80;;;15.30;52.90;;;;;;5067119;28;20436;-50
2022/04/07 10:17:38;;;;;;;0.73;0.73;;;15.30;52.20;;;;;;5071683;28;20803;-46
2022/04/07 10:20:11;;;;;;;1.43;0.60;;;15.20;52.30;;;;;;5065421;28;20250;-44
2022/04/07 10:22:55;;;;;;;0.80;0.50;;;15.10;52.00;;;;;;5071320;28;20446;-44
2022/04/07 10:25:23;;;;;;;0.80;0.80;;;15.50;51.90;;;;;;5061481;28;20438;-44
2022/04/07 10:27:54;;;;;;;1.87;0.87;;;15.60;51.90;;;;;;5061547;28;20473;-45
2022/04/07 10:30:21;;;;;;;0.90;0.50;;;15.90;52.30;;;;;;5071721;28;20864;-46
2022/04/07 10:32:54;;;;;;;2.93;1.63;;;15.70;51.10;;;;;;5069854;28;20509;-44
2022/04/07 10:35:37;;;;;;;2.80;0.70;;;15.50;51.30;;;;;;5071415;28;20478;-47
2022/04/07 10:38:07;;;;;;;0.83;0.80;;;15.70;51.40;;;;;;5071822;28;20770;-43
2022/04/07 10:40:51;;;;;;;0.70;0.60;;;15.70;50.90;;;;;;5071123;28;20515;-46
2022/04/07 10:43:25;;;;;;;0.87;0.50;;;15.60;50.80;;;;;;5069718;28;20469;-44
2022/04/07 10:46:05;;;;;;;1.10;0.60;;;15.90;51.10;;;;;;5070459;28;20446;-47
2022/04/07 10:48:34;;;;;;;1.70;0.60;;;15.80;50.60;;;;;;5064914;28;20446;-44
2022/04/07 10:51:08;;;;;;;1.87;0.80;;;15.80;50.90;;;;;;5070300;28;20528;-44
2022/04/07 10:53:39;;;;;;;0.83;0.60;;;15.70;51.80;;;;;;5071694;28;20982;-43
2022/04/07 10:56:34;;;;;;;0.80;0.70;;;15.70;51.20;;;;;;5071149;28;20469;-44
2022/04/07 10:59:21;;;;;;;0.90;0.50;;;15.70;51.20;;;;;;5069289;28;20442;-45
2022/04/07 11:01:59;;;;;;;1.63;0.53;;;15.70;51.30;;;;;;5069285;28;20438;-45
2022/04/07 11:04:24;;;;;;;1.00;0.60;;;16.00;52.20;;;;;;5071341;28;20422;-45
2022/04/07 11:07:07;;;;;;;1.37;0.60;;;16.10;51.70;;;;;;5071545;28;20442;-44
2022/04/07 11:09:52;;;;;;;0.60;0.60;;;16.10;50.70;;;;;;5069225;28;20557;-45
2022/04/07 11:12:28;;;;;;;0.60;0.60;;;16.00;50.70;;;;;;5070338;28;20902;-44
2022/04/07 11:15:29;;;;;;;1.43;0.60;;;16.10;51.10;;;;;;5070620;28;20933;-44
2022/04/07 11:18:17;;;;;;;0.50;0.50;;;16.30;50.60;;;;;;5071440;28;20441;-45
2022/04/07 11:21:11;;;;;;;0.50;0.50;;;16.30;50.60;;;;;;5063006;28;20535;-43
2022/04/07 11:23:48;;;;;;;1.67;0.73;;;16.30;50.30;;;;;;5059684;28;20568;-43
2022/04/07 11:26:27;;;;;;;1.90;0.63;;;16.30;50.50;;;;;;5069968;28;20482;-43
2022/04/07 11:29:04;;;;;;;0.53;0.53;;;16.50;50.10;;;;;;5071177;28;20441;-44
2022/04/07 11:31:50;;;;;;;1.47;0.50;;;16.50;49.60;;;;;;5069512;28;20442;-44
2022/04/07 11:34:38;;;;;;;0.70;0.53;;;16.60;49.50;;;;;;5069822;28;20509;-44
2022/04/07 11:37:17;;;;;;;0.60;0.60;;;16.80;49.60;;;;;;5068534;28;20453;-44
2022/04/07 11:39:50;;;;;;;0.60;0.60;;;16.70;48.90;;;;;;5057577;28;20544;-45
2022/04/07 11:42:18;;;;;;;0.50;0.50;;;16.50;49.10;;;;;;5068475;28;20499;-44
2022/04/07 11:44:47;;;;;;;0.60;0.60;;;16.30;49.30;;;;;;5067649;28;20830;-44
2022/04/07 11:47:28;;;;;;;0.77;0.60;;;16.40;49.50;;;;;;5064551;28;20491;-47
2022/04/07 11:49:54;;;;;;;1.47;0.67;;;16.50;49.20;;;;;;5062039;28;20541;-49
2022/04/07 11:52:26;;;;;;;1.57;0.40;;;16.50;48.90;;;;;;5059215;28;20517;-45
2022/04/07 11:54:56;;;;;;;6.30;0.80;;;16.50;49.40;;;;;;5062932;28;20538;-46
2022/04/07 11:57:24;;;;;;;0.50;0.50;;;16.40;49.10;;;;;;5068004;28;20469;-48
2022/04/07 11:59:49;;;;;;;1.77;0.50;;;16.40;49.30;;;;;;5069635;28;20993;-48
2022/04/07 12:02:22;;;;;;;0.87;0.60;;;16.60;49.90;;;;;;5069834;28;20564;-48
2022/04/07 12:05:04;;;;;;;0.50;0.50;;;16.60;49.50;;;;;;5068603;28;20202;-49
2022/04/07 12:07:30;;;;;;;0.60;0.40;;;16.70;49.30;;;;;;5078955;28;20426;-49
2022/04/07 12:10:05;;;;;;;0.50;0.40;;;16.50;49.40;;;;;;5067745;28;20921;-45
2022/04/07 12:12:31;;;;;;;0.50;0.50;;;16.40;49.90;;;;;;5062258;28;20444;-44
2022/04/07 12:14:57;;;;;;;0.73;0.50;;;16.50;49.90;;;;;;5070769;28;20461;-47
2022/04/07 12:17:22;;;;;;;2.40;0.77;;;16.40;50.00;;;;;;5066456;28;20202;-47
2022/04/07 12:19:49;;;;;;;1.47;0.50;;;16.60;50.30;;;;;;5065399;28;20374;-46
2022/04/07 12:22:16;;;;;;;0.87;0.50;;;16.40;50.00;;;;;;5068168;28;20265;-45
2022/04/07 12:25:02;;;;;;;1.33;0.40;;;16.50;50.50;;;;;;5056294;28;20527;-48
2022/04/07 12:27:30;;;;;;;5.63;0.80;;;16.50;50.70;;;;;;5066069;28;20560;-48
2022/04/07 12:29:57;;;;;;;0.50;0.40;;;16.10;50.70;;;;;;5056585;28;21056;-48
2022/04/07 12:32:23;;;;;;;0.50;0.50;;;16.20;51.40;;;;;;5066521;28;20434;-44
2022/04/07 12:34:51;;;;;;;0.50;0.47;;;16.10;51.50;;;;;;5064087;28;20453;-44
2022/04/07 12:37:37;;;;;;;0.50;0.50;;;16.10;51.90;;;;;;5064716;28;20241;-43
2022/04/07 12:40:06;;;;;;;1.17;0.50;;;15.80;52.20;;;;;;5066474;28;20561;-47
2022/04/07 12:42:32;;;;;;;0.90;0.70;;;15.80;52.80;;;;;;5068226;28;20439;-47
2022/04/07 12:45:06;;;;;;;0.77;0.50;;;15.70;52.80;;;;;;5068626;28;20423;-44
2022/04/07 12:47:31;;;;;;;0.70;0.50;;;15.80;53.50;;;;;;5068022;28;20256;-43
2022/04/07 12:49:59;;;;;;;2.40;0.60;;;15.70;53.10;;;;;;5067783;28;20892;-48
2022/04/07 12:52:43;;;;;;;1.00;0.50;;;15.80;53.10;;;;;;5058235;28;20695;-43